createdAt,value
2023-04-29T00:01:12.352Z,6.72
2023-04-29T00:03:40.814Z,6.00
2023-04-29T00:06:11.705Z,6.35
2023-04-29T00:08:40.929Z,7.00
2023-04-29T00:11:11.479Z,6.00
2023-04-29T00:13:41.245Z,6.20
2023-04-29T00:16:10.554Z,6.53
2023-04-29T00:18:39.075Z,6.10
2023-04-29T00:21:08.172Z,6.20
2023-04-29T00:23:36.668Z,6.85
2023-04-29T00:26:05.668Z,6.47
2023-04-29T00:28:34.179Z,6.35
2023-04-29T00:31:03.096Z,5.97
2023-04-29T00:33:31.822Z,5.68
2023-04-29T00:36:00.688Z,6.47
2023-04-29T00:38:29.356Z,5.70
2023-04-29T00:40:58.170Z,6.43
2023-04-29T00:43:26.617Z,7.00
2023-04-29T00:45:55.632Z,5.63
2023-04-29T00:48:24.141Z,6.20
2023-04-29T00:50:53.383Z,7.10
2023-04-29T00:53:23.489Z,6.57
2023-04-29T00:55:52.598Z,6.63
2023-04-29T00:58:22.401Z,6.43
2023-04-29T01:00:51.192Z,7.28
2023-04-29T01:03:19.702Z,6.85
2023-04-29T01:05:48.592Z,6.95
2023-04-29T01:08:48.386Z,6.63
2023-04-29T01:11:17.199Z,6.85
2023-04-29T01:13:55.640Z,6.65
2023-04-29T01:16:30.062Z,6.85
2023-04-29T01:19:07.659Z,6.75
2023-04-29T01:21:49.171Z,7.28
2023-04-29T01:24:17.697Z,6.63
2023-04-29T01:26:59.696Z,7.32
2023-04-29T01:30:13.579Z,7.25
2023-04-29T01:33:30.928Z,7.50
2023-04-29T01:36:02.859Z,6.78
2023-04-29T01:41:43.809Z,6.50
2023-04-29T01:44:22.560Z,7.72
2023-04-29T01:46:54.676Z,6.70
2023-04-29T01:49:30.061Z,6.57
2023-04-29T01:51:58.629Z,6.93
2023-04-29T01:54:27.881Z,6.93
2023-04-29T01:56:59.169Z,7.07
2023-04-29T01:59:32.551Z,6.82
2023-04-29T02:02:15.673Z,7.93
2023-04-29T02:04:54.355Z,8.80
2023-04-29T02:07:23.000Z,6.97
2023-04-29T02:09:52.138Z,8.07
2023-04-29T02:12:21.365Z,8.13
2023-04-29T02:14:53.995Z,8.27
2023-04-29T02:17:22.629Z,7.97
2023-04-29T02:19:51.675Z,8.50
2023-04-29T02:22:20.635Z,9.20
2023-04-29T02:24:49.473Z,8.52
2023-04-29T02:27:18.333Z,8.40
2023-04-29T02:29:47.433Z,9.02
2023-04-29T02:32:16.136Z,8.27
2023-04-29T02:34:45.661Z,8.50
2023-04-29T02:37:14.387Z,9.23
2023-04-29T02:39:43.403Z,9.30
2023-04-29T02:42:14.096Z,8.52
2023-04-29T02:44:42.875Z,9.85
2023-04-29T02:47:11.455Z,10.57
2023-04-29T02:49:40.637Z,8.63
2023-04-29T02:52:09.297Z,9.68
2023-04-29T02:54:38.547Z,9.75
2023-04-29T02:57:08.141Z,9.75
2023-04-29T02:59:37.197Z,9.95
2023-04-29T03:02:05.724Z,9.38
2023-04-29T03:04:34.633Z,10.23
2023-04-29T03:07:03.155Z,9.57
2023-04-29T03:09:32.176Z,9.55
2023-04-29T03:12:01.617Z,9.70
2023-04-29T03:14:30.472Z,9.80
2023-04-29T03:17:00.386Z,9.75
2023-04-29T03:19:29.635Z,9.32
2023-04-29T03:21:58.167Z,8.63
2023-04-29T03:24:27.481Z,8.15
2023-04-29T03:26:56.227Z,8.93
2023-04-29T03:29:25.218Z,8.35
2023-04-29T03:31:54.690Z,9.45
2023-04-29T03:34:23.783Z,9.35
2023-04-29T03:37:06.320Z,9.10
2023-04-29T03:39:35.196Z,10.18
2023-04-29T03:42:04.800Z,9.63
2023-04-29T03:44:33.660Z,9.32
2023-04-29T03:47:02.172Z,10.48
2023-04-29T03:49:31.135Z,9.88
2023-04-29T03:51:59.633Z,10.07
2023-04-29T03:54:28.412Z,8.48
2023-04-29T03:56:56.932Z,8.48
2023-04-29T03:59:26.447Z,8.05
2023-04-29T04:01:55.054Z,8.45
2023-04-29T04:04:24.340Z,7.20
2023-04-29T04:06:53.061Z,7.50
2023-04-29T04:09:26.414Z,8.18
2023-04-29T04:11:54.875Z,7.63
2023-04-29T04:14:23.726Z,7.63
2023-04-29T04:16:52.441Z,7.75
2023-04-29T04:19:21.374Z,8.05
2023-04-29T04:21:49.801Z,7.47
2023-04-29T04:24:20.103Z,8.63
2023-04-29T04:26:49.534Z,6.88
2023-04-29T04:29:29.477Z,7.45
2023-04-29T04:32:01.341Z,8.55
2023-04-29T04:34:31.752Z,8.32
2023-04-29T04:37:02.305Z,9.07
2023-04-29T04:39:34.353Z,9.38
2023-04-29T04:42:03.986Z,9.20
2023-04-29T04:44:34.883Z,10.05
2023-04-29T04:47:08.521Z,9.75
2023-04-29T04:49:53.355Z,9.02
2023-04-29T04:52:23.941Z,10.35
2023-04-29T04:55:04.512Z,10.15
2023-04-29T04:57:36.880Z,12.15
2023-04-29T05:00:07.131Z,12.52
2023-04-29T05:02:36.216Z,12.13
2023-04-29T05:05:05.952Z,12.88
2023-04-29T05:07:37.566Z,14.00
2023-04-29T05:10:08.796Z,12.80
2023-04-29T05:12:45.060Z,12.73
2023-04-29T05:15:15.209Z,13.27
2023-04-29T05:17:45.633Z,12.85
2023-04-29T05:20:14.694Z,12.30
2023-04-29T05:22:43.171Z,12.52
2023-04-29T05:25:11.932Z,11.95
2023-04-29T05:27:40.669Z,12.52
2023-04-29T05:30:13.753Z,12.70
2023-04-29T05:32:42.253Z,12.00
2023-04-29T05:35:15.860Z,13.05
2023-04-29T05:37:45.478Z,12.63
2023-04-29T05:40:26.133Z,11.57
2023-04-29T05:43:02.117Z,13.25
2023-04-29T05:45:30.960Z,12.57
2023-04-29T05:47:59.444Z,11.52
2023-04-29T05:50:28.201Z,12.55
2023-04-29T05:52:57.052Z,11.93
2023-04-29T05:55:27.598Z,11.55
2023-04-29T05:57:57.082Z,12.27
2023-04-29T06:00:26.000Z,12.32
2023-04-29T06:03:00.481Z,12.93
2023-04-29T06:05:30.340Z,13.45
2023-04-29T06:08:19.862Z,14.63
2023-04-29T06:10:52.711Z,13.60
2023-04-29T06:13:21.674Z,13.07
2023-04-29T06:15:51.045Z,13.30
2023-04-29T06:18:21.286Z,13.80
2023-04-29T06:20:49.989Z,13.45
2023-04-29T06:23:18.619Z,13.35
2023-04-29T06:25:47.485Z,13.98
2023-04-29T06:28:16.700Z,12.85
2023-04-29T06:30:46.947Z,13.07
2023-04-29T06:33:16.065Z,11.98
2023-04-29T06:35:45.037Z,12.75
2023-04-29T06:38:24.217Z,13.80
2023-04-29T06:41:11.382Z,14.07
2023-04-29T06:44:05.924Z,14.45
2023-04-29T06:46:50.207Z,13.75
2023-04-29T06:49:29.353Z,13.70
2023-04-29T06:51:59.894Z,13.50
2023-04-29T06:54:28.910Z,15.15
2023-04-29T06:56:58.532Z,14.13
2023-04-29T06:59:27.055Z,13.05
2023-04-29T07:01:56.185Z,13.23
2023-04-29T07:04:24.951Z,12.55
2023-04-29T07:06:54.702Z,13.07
2023-04-29T07:09:23.982Z,14.02
2023-04-29T07:11:52.707Z,12.82
2023-04-29T07:14:23.176Z,12.90
2023-04-29T07:16:55.587Z,13.40
2023-04-29T07:19:24.043Z,13.93
2023-04-29T07:21:52.785Z,13.35
2023-04-29T07:24:21.251Z,12.27
2023-04-29T07:26:50.744Z,12.93
2023-04-29T07:29:19.477Z,14.18
2023-04-29T07:31:48.387Z,11.77
2023-04-29T07:34:17.045Z,12.32
2023-04-29T07:36:46.154Z,12.40
2023-04-29T07:39:15.753Z,13.05
2023-04-29T07:41:49.462Z,12.93
2023-04-29T07:44:17.861Z,11.70
2023-04-29T07:46:47.037Z,13.40
2023-04-29T07:49:15.687Z,12.25
2023-04-29T07:51:44.546Z,12.57
2023-04-29T07:54:13.078Z,12.55
2023-04-29T07:56:42.266Z,12.48
2023-04-29T07:59:10.843Z,12.88
2023-04-29T08:01:42.408Z,11.88
2023-04-29T08:04:11.036Z,12.70
2023-04-29T08:06:50.576Z,11.70
2023-04-29T08:09:18.974Z,11.60
2023-04-29T08:11:47.828Z,12.15
2023-04-29T08:14:16.419Z,12.93
2023-04-29T08:16:45.218Z,12.23
2023-04-29T08:19:13.751Z,12.02
2023-04-29T08:21:42.939Z,11.43
2023-04-29T08:24:11.492Z,12.13
2023-04-29T08:26:43.120Z,11.18
2023-04-29T08:29:11.549Z,11.30
2023-04-29T08:31:41.435Z,11.63
2023-04-29T08:34:09.907Z,11.30
2023-04-29T08:36:38.932Z,11.43
2023-04-29T08:39:07.282Z,12.07
2023-04-29T08:41:37.858Z,9.52
2023-04-29T08:44:06.380Z,11.07
2023-04-29T08:46:35.371Z,11.80
2023-04-29T08:49:04.538Z,10.02
2023-04-29T08:51:35.018Z,11.10
2023-04-29T08:54:03.500Z,9.93
2023-04-29T08:56:32.252Z,9.70
2023-04-29T08:59:02.103Z,9.70
2023-04-29T09:01:31.315Z,9.68
2023-04-29T09:04:10.664Z,8.75
2023-04-29T09:06:39.468Z,8.18
2023-04-29T09:09:08.000Z,8.80
2023-04-29T09:11:37.229Z,9.30
2023-04-29T09:14:05.812Z,8.07
2023-04-29T09:16:37.731Z,8.32
2023-04-29T09:19:06.369Z,8.63
2023-04-29T09:21:35.686Z,7.50
2023-04-29T09:24:04.436Z,7.63
2023-04-29T09:26:43.622Z,7.53
2023-04-29T09:29:16.329Z,8.02
2023-04-29T09:34:14.768Z,6.80
2023-04-29T09:36:59.204Z,7.03
2023-04-29T09:39:27.695Z,7.03
2023-04-29T09:41:56.282Z,7.32
2023-04-29T09:44:36.127Z,7.43
2023-04-29T09:47:07.062Z,7.80
2023-04-29T09:49:41.440Z,7.63
2023-04-29T09:52:14.146Z,8.15
2023-04-29T09:54:43.651Z,8.67
2023-04-29T09:57:13.191Z,8.43
2023-04-29T09:59:42.222Z,7.88
2023-04-29T10:02:18.419Z,8.25
2023-04-29T10:04:57.957Z,7.28
2023-04-29T10:07:27.191Z,8.57
2023-04-29T10:09:55.626Z,8.52
2023-04-29T10:12:24.508Z,7.90
2023-04-29T10:15:04.302Z,7.15
2023-04-29T10:17:47.508Z,6.65
2023-04-29T10:20:22.898Z,9.30
2023-04-29T10:22:56.957Z,8.00
2023-04-29T10:25:28.473Z,8.65
2023-04-29T10:27:57.302Z,9.38
2023-04-29T10:30:25.810Z,8.13
2023-04-29T10:32:55.383Z,9.30
2023-04-29T10:35:25.921Z,9.82
2023-04-29T10:37:54.888Z,10.80
2023-04-29T10:40:43.060Z,9.75
2023-04-29T10:43:11.880Z,8.07
2023-04-29T10:45:41.004Z,11.18
2023-04-29T10:48:13.886Z,10.85
2023-04-29T10:51:01.666Z,12.38
2023-04-29T10:53:30.733Z,10.48
2023-04-29T10:56:05.578Z,11.32
2023-04-29T10:58:39.838Z,10.55
2023-04-29T11:01:08.688Z,10.30
2023-04-29T11:04:01.202Z,11.43
2023-04-29T11:06:54.488Z,10.20
2023-04-29T11:09:26.813Z,12.38
2023-04-29T11:12:04.010Z,12.13
2023-04-29T11:14:44.103Z,11.27
2023-04-29T11:17:17.711Z,9.55
2023-04-29T11:19:52.080Z,10.98
2023-04-29T11:22:24.366Z,11.38
2023-04-29T11:24:57.741Z,12.00
2023-04-29T11:27:37.553Z,10.43
2023-04-29T11:30:07.785Z,12.32
2023-04-29T11:32:40.652Z,13.07
2023-04-29T11:35:17.625Z,11.35
2023-04-29T11:37:47.195Z,12.73
2023-04-29T11:40:17.205Z,13.52
2023-04-29T11:42:49.700Z,13.27
2023-04-29T11:45:19.261Z,13.98
2023-04-29T11:47:48.610Z,13.38
2023-04-29T11:50:20.141Z,13.10
2023-04-29T11:52:49.623Z,13.68
2023-04-29T11:55:19.270Z,13.80
2023-04-29T11:57:50.732Z,13.65
2023-04-29T12:00:19.611Z,13.52
2023-04-29T12:02:48.520Z,13.00
2023-04-29T12:05:19.508Z,14.55
2023-04-29T12:07:51.254Z,13.70
2023-04-29T12:10:21.492Z,12.90
2023-04-29T12:12:49.937Z,12.15
2023-04-29T12:15:18.534Z,12.65
2023-04-29T12:17:47.464Z,12.23
2023-04-29T12:20:16.135Z,13.48
2023-04-29T12:22:44.474Z,13.23
2023-04-29T12:25:13.149Z,12.85
2023-04-29T12:27:44.530Z,13.07
2023-04-29T12:30:13.591Z,14.32
2023-04-29T12:32:42.228Z,14.57
2023-04-29T12:35:18.135Z,12.65
2023-04-29T12:37:51.069Z,12.73
2023-04-29T12:40:20.974Z,12.68
2023-04-29T12:42:49.497Z,12.75
2023-04-29T12:45:32.264Z,11.00
2023-04-29T12:48:01.548Z,11.17
2023-04-29T12:50:34.693Z,11.55
2023-04-29T12:53:07.661Z,11.98
2023-04-29T12:55:37.536Z,11.80
2023-04-29T12:58:06.176Z,12.13
2023-04-29T13:00:35.489Z,11.07
2023-04-29T13:03:04.679Z,9.80
2023-04-29T13:05:33.691Z,11.52
2023-04-29T13:08:02.291Z,10.68
2023-04-29T13:10:31.341Z,12.85
2023-04-29T13:13:00.099Z,11.13
2023-04-29T13:15:28.826Z,11.68
2023-04-29T13:17:59.060Z,11.90
2023-04-29T13:20:28.244Z,11.15
2023-04-29T13:22:56.720Z,12.30
2023-04-29T13:25:25.421Z,11.35
2023-04-29T13:27:53.765Z,10.73
2023-04-29T13:30:22.454Z,10.25
2023-04-29T13:32:55.935Z,11.43
2023-04-29T13:35:27.617Z,10.23
2023-04-29T13:37:56.139Z,10.82
2023-04-29T13:40:27.856Z,10.00
2023-04-29T13:43:04.896Z,11.73
2023-04-29T13:45:41.189Z,11.68
2023-04-29T13:48:32.436Z,11.48
2023-04-29T13:54:10.632Z,11.35
2023-04-29T13:59:37.259Z,9.77
2023-04-29T14:04:13.281Z,11.75
2023-04-29T14:06:44.366Z,12.10
2023-04-29T14:09:12.885Z,11.88
2023-04-29T14:11:41.900Z,11.02
2023-04-29T14:14:10.267Z,13.93
2023-04-29T14:16:39.118Z,10.98
2023-04-29T14:19:07.980Z,11.57
2023-04-29T14:21:36.769Z,11.63
2023-04-29T14:24:05.267Z,11.30
2023-04-29T14:26:34.140Z,10.60
2023-04-29T14:29:02.522Z,8.77
2023-04-29T14:31:35.663Z,10.77
2023-04-29T14:34:04.268Z,11.93
2023-04-29T14:36:33.000Z,13.63
2023-04-29T14:39:01.334Z,11.65
2023-04-29T14:41:29.932Z,11.35
2023-04-29T14:43:58.338Z,11.20
2023-04-29T14:46:29.228Z,9.63
2023-04-29T14:48:57.593Z,9.35
2023-04-29T14:51:27.498Z,10.93
2023-04-29T14:53:55.956Z,10.75
2023-04-29T14:56:24.707Z,10.63
2023-04-29T14:58:53.075Z,9.90
2023-04-29T15:01:21.841Z,11.57
2023-04-29T15:03:50.229Z,11.50
2023-04-29T15:06:18.962Z,11.77
2023-04-29T15:08:47.303Z,12.38
2023-04-29T15:11:16.041Z,13.95
2023-04-29T15:13:44.425Z,12.60
2023-04-29T15:16:13.102Z,11.07
2023-04-29T15:18:44.921Z,11.18
2023-04-29T15:21:14.406Z,11.52
2023-04-29T15:23:42.724Z,13.43
2023-04-29T15:26:11.370Z,12.55
2023-04-29T15:28:39.818Z,11.25
2023-04-29T15:31:08.466Z,10.85
2023-04-29T15:33:36.937Z,11.07
2023-04-29T15:36:07.136Z,9.60
2023-04-29T15:38:35.458Z,8.93
2023-04-29T15:41:04.186Z,9.95
2023-04-29T15:43:33.413Z,11.98
2023-04-29T15:46:02.051Z,12.05
2023-04-29T15:48:30.381Z,11.73
2023-04-29T15:50:59.034Z,10.88
2023-04-29T15:53:27.373Z,11.18
2023-04-29T15:55:56.225Z,9.98
2023-04-29T15:58:24.616Z,9.73
2023-04-29T16:00:53.343Z,9.65
2023-04-29T16:03:21.742Z,11.60
2023-04-29T16:05:51.137Z,11.30
2023-04-29T16:08:19.529Z,11.05
2023-04-29T16:10:49.872Z,10.60
2023-04-29T16:13:18.612Z,10.18
2023-04-29T16:15:47.348Z,9.40
2023-04-29T16:18:17.924Z,8.48
2023-04-29T16:20:46.784Z,8.25
2023-04-29T16:23:15.206Z,8.15
2023-04-29T16:25:43.995Z,7.07
2023-04-29T16:28:12.500Z,7.10
2023-04-29T16:30:41.384Z,7.57
2023-04-29T16:33:09.960Z,7.47
2023-04-29T16:35:39.035Z,7.10
2023-04-29T16:38:07.495Z,7.50
2023-04-29T16:40:36.865Z,6.82
2023-04-29T16:43:05.338Z,6.60
2023-04-29T16:45:34.185Z,7.20
2023-04-29T16:48:03.314Z,6.82
2023-04-29T16:50:32.247Z,5.95
2023-04-29T16:53:01.301Z,7.13
2023-04-29T16:55:33.097Z,7.65
2023-04-29T16:58:01.597Z,7.20
2023-04-29T17:00:30.511Z,7.75
2023-04-29T17:02:59.031Z,7.38
2023-04-29T17:05:28.058Z,6.28
2023-04-29T17:07:56.652Z,6.95
2023-04-29T17:10:25.462Z,7.15
2023-04-29T17:12:54.015Z,7.00
2023-04-29T17:15:22.925Z,7.47
2023-04-29T17:17:51.574Z,6.55
2023-04-29T17:20:20.726Z,7.90
2023-04-29T17:22:49.105Z,8.88
2023-04-29T17:25:18.282Z,8.48
2023-04-29T17:27:46.809Z,9.02
2023-04-29T17:30:15.689Z,8.20
2023-04-29T17:32:44.673Z,7.22
2023-04-29T17:35:13.467Z,10.98
2023-04-29T17:37:41.930Z,9.52
2023-04-29T17:40:11.636Z,10.02
2023-04-29T17:42:40.540Z,10.85
2023-04-29T17:45:10.504Z,10.23
2023-04-29T17:47:38.905Z,10.38
2023-04-29T17:50:08.492Z,10.77
2023-04-29T17:52:37.000Z,11.27
2023-04-29T17:55:06.518Z,11.15
2023-04-29T17:57:35.006Z,11.35
2023-04-29T18:00:05.706Z,11.02
2023-04-29T18:02:34.956Z,10.18
2023-04-29T18:05:04.317Z,9.57
2023-04-29T18:07:32.883Z,8.50
2023-04-29T18:10:01.681Z,10.40
2023-04-29T18:12:30.182Z,10.30
2023-04-29T18:14:58.961Z,9.68
2023-04-29T18:17:27.615Z,10.23
2023-04-29T18:19:56.709Z,11.50
2023-04-29T18:22:25.401Z,12.32
2023-04-29T18:24:54.231Z,10.75
2023-04-29T18:27:22.602Z,11.55
2023-04-29T18:29:51.635Z,13.32
2023-04-29T18:32:20.329Z,12.40
2023-04-29T18:34:49.212Z,13.50
2023-04-29T18:37:17.677Z,11.75
2023-04-29T18:39:46.413Z,12.07
2023-04-29T18:42:14.840Z,13.32
2023-04-29T18:44:43.874Z,12.82
2023-04-29T18:47:12.292Z,13.90
2023-04-29T18:49:41.304Z,12.40
2023-04-29T18:52:09.712Z,14.43
2023-04-29T18:54:38.496Z,14.82
2023-04-29T18:57:07.125Z,13.65
2023-04-29T18:59:37.905Z,14.98
2023-04-29T19:02:06.764Z,13.85
2023-04-29T19:04:36.004Z,14.48
2023-04-29T19:07:06.430Z,14.20
2023-04-29T19:09:35.182Z,14.82
2023-04-29T19:12:05.465Z,14.80
2023-04-29T19:14:34.439Z,16.05
2023-04-29T19:17:02.873Z,17.73
2023-04-29T19:19:31.688Z,18.83
2023-04-29T19:22:01.351Z,17.85
2023-04-29T19:24:29.998Z,18.25
2023-04-29T19:26:58.383Z,17.50
2023-04-29T19:29:27.173Z,17.35
2023-04-29T19:31:55.701Z,16.98
2023-04-29T19:34:24.649Z,17.45
2023-04-29T19:36:53.254Z,17.55
2023-04-29T19:39:21.970Z,15.70
2023-04-29T19:41:50.359Z,17.67
2023-04-29T19:44:19.184Z,18.77
2023-04-29T19:46:51.764Z,17.58
2023-04-29T19:49:20.812Z,17.58
2023-04-29T19:51:50.644Z,17.80
2023-04-29T19:54:19.435Z,17.38
2023-04-29T19:56:47.900Z,18.70
2023-04-29T19:59:17.073Z,18.05
2023-04-29T20:01:45.605Z,17.85
2023-04-29T20:04:14.500Z,17.50
2023-04-29T20:06:43.065Z,16.38
2023-04-29T20:09:11.996Z,14.95
2023-04-29T20:11:40.468Z,15.85
2023-04-29T20:14:09.170Z,15.38
2023-04-29T20:16:37.523Z,15.57
2023-04-29T20:19:06.885Z,16.33
2023-04-29T20:21:35.523Z,14.35
2023-04-29T20:24:04.894Z,13.70
2023-04-29T20:26:33.518Z,14.60
2023-04-29T20:29:02.217Z,15.27
2023-04-29T20:31:30.664Z,15.57
2023-04-29T20:34:00.526Z,16.15
2023-04-29T20:36:28.891Z,16.13
2023-04-29T20:38:57.674Z,17.55
2023-04-29T20:41:29.369Z,17.70
2023-04-29T20:43:59.122Z,16.38
2023-04-29T20:46:29.305Z,16.17
2023-04-29T20:48:58.033Z,17.17
2023-04-29T20:51:27.040Z,16.75
2023-04-29T20:53:55.798Z,15.98
2023-04-29T20:56:24.741Z,14.95
2023-04-29T20:58:53.404Z,15.88
2023-04-29T21:01:21.864Z,15.73
2023-04-29T21:03:50.966Z,14.45
2023-04-29T21:06:19.672Z,13.70
2023-04-29T21:08:48.474Z,11.85
2023-04-29T21:11:16.798Z,10.18
2023-04-29T21:13:50.646Z,10.48
2023-04-29T21:16:19.716Z,8.90
2023-04-29T21:18:48.545Z,10.45
2023-04-29T21:21:16.916Z,9.00
2023-04-29T21:23:45.723Z,9.10
2023-04-29T21:26:15.287Z,7.45
2023-04-29T21:28:44.115Z,9.02
2023-04-29T21:31:16.411Z,7.95
2023-04-29T21:33:45.522Z,7.55
2023-04-29T21:36:14.126Z,7.63
2023-04-29T21:38:46.094Z,6.38
2023-04-29T21:41:27.611Z,7.30
2023-04-29T21:43:58.708Z,7.60
2023-04-29T21:46:29.989Z,8.48
2023-04-29T21:48:58.702Z,8.43
2023-04-29T21:51:27.237Z,7.80
2023-04-29T21:53:56.052Z,7.28
2023-04-29T21:56:24.769Z,7.18
2023-04-29T21:58:53.842Z,8.18
2023-04-29T22:01:40.679Z,8.10
2023-04-29T22:04:09.424Z,8.85
2023-04-29T22:06:37.857Z,7.78
2023-04-29T22:09:09.445Z,7.55
2023-04-29T22:11:37.837Z,8.38
2023-04-29T22:14:06.815Z,9.18
2023-04-29T22:16:36.155Z,8.57
2023-04-29T22:19:05.075Z,9.25
2023-04-29T22:21:33.913Z,9.38
2023-04-29T22:24:02.881Z,8.93
2023-04-29T22:26:31.324Z,9.10
2023-04-29T22:28:59.978Z,9.68
2023-04-29T22:31:28.407Z,9.23
2023-04-29T22:33:57.181Z,9.63
2023-04-29T22:36:25.532Z,9.60
2023-04-29T22:38:54.177Z,8.45
2023-04-29T22:41:22.528Z,9.68
2023-04-29T22:43:57.695Z,9.82
2023-04-29T22:46:26.394Z,9.25
2023-04-29T22:48:55.247Z,8.52
2023-04-29T22:51:23.607Z,9.30
2023-04-29T22:53:52.520Z,7.90
2023-04-29T22:56:21.119Z,8.30
2023-04-29T22:58:50.252Z,8.20
2023-04-29T23:01:18.558Z,8.40
2023-04-29T23:03:47.318Z,8.63
2023-04-29T23:06:15.653Z,9.57
2023-04-29T23:08:44.815Z,9.20
2023-04-29T23:11:13.462Z,9.80
2023-04-29T23:13:42.133Z,9.00
2023-04-29T23:16:11.124Z,8.57
2023-04-29T23:18:39.945Z,8.95
2023-04-29T23:21:08.302Z,9.50
2023-04-29T23:23:36.928Z,9.90
2023-04-29T23:26:05.505Z,11.18
2023-04-29T23:28:34.389Z,10.88
2023-04-29T23:31:02.805Z,10.23
2023-04-29T23:33:31.789Z,9.90
2023-04-29T23:36:00.138Z,9.38
2023-04-29T23:38:29.061Z,10.15
2023-04-29T23:40:57.471Z,10.40
2023-04-29T23:43:26.192Z,10.48
2023-04-29T23:45:54.500Z,9.93
2023-04-29T23:48:23.086Z,9.43
2023-04-29T23:50:51.377Z,10.00
2023-04-29T23:53:19.976Z,9.00
2023-04-29T23:55:49.848Z,10.65
2023-04-29T23:58:18.431Z,10.13
